Time;durP1;ratioP1;P1;durP2;ratioP2;P2;SDS_P1;SDS_P2;PMS_P1;PMS_P2;Temp;Humidity;BMP_temperature;BMP_pressure;BME280_temperature;BME280_humidity;BME280_pressure;Samples;Min_cycle;Max_cycle;Signal;HPM_P1;HPM_P2
2022/07/02 00:00:20;;;;;;;8.00;2.95;;;14.20;99.90;;;;;;5027838;28;20475;-63
2022/07/02 00:02:50;;;;;;;8.52;2.72;;;14.20;99.90;;;;;;5034520;28;20048;-63
2022/07/02 00:05:20;;;;;;;5.40;2.75;;;14.10;99.90;;;;;;5004634;28;20124;-63
2022/07/02 00:07:46;;;;;;;4.85;2.60;;;14.10;99.90;;;;;;5028380;28;20509;-63
2022/07/02 00:10:12;;;;;;;6.70;2.97;;;;;;;;;;5007267;28;20045;-63
2022/07/02 00:12:38;;;;;;;6.20;2.45;;;;;;;;;;5008615;28;20171;-63
2022/07/02 00:15:04;;;;;;;6.05;2.58;;;14.10;99.90;;;;;;5018192;28;20075;-63
2022/07/02 00:17:29;;;;;;;5.82;2.55;;;14.00;99.90;;;;;;5026610;28;20097;-63
2022/07/02 00:19:56;;;;;;;11.90;3.78;;;13.90;99.90;;;;;;5032127;28;20194;-63
2022/07/02 00:22:21;;;;;;;8.25;3.15;;;;;;;;;;5032352;28;20033;-63
2022/07/02 00:24:47;;;;;;;3.83;2.83;;;14.10;99.90;;;;;;5049972;28;20043;-63
2022/07/02 00:27:16;;;;;;;5.63;2.60;;;14.00;99.90;;;;;;5032773;28;20395;-63
2022/07/02 00:29:58;;;;;;;7.15;3.67;;;13.90;99.90;;;;;;5044700;28;20048;-63
2022/07/02 00:32:30;;;;;;;5.35;3.25;;;13.90;99.90;;;;;;5033738;28;20055;-63
2022/07/02 00:34:58;;;;;;;9.90;3.50;;;14.00;99.90;;;;;;4999620;28;20411;-63
2022/07/02 00:37:25;;;;;;;7.05;2.72;;;14.00;99.90;;;;;;5013384;28;20037;-63
2022/07/02 00:39:51;;;;;;;9.90;3.70;;;13.80;99.90;;;;;;5051867;28;20390;-64
2022/07/02 00:42:17;;;;;;;6.55;3.28;;;13.80;99.90;;;;;;5033819;28;20049;-63
2022/07/02 00:44:45;;;;;;;6.80;3.35;;;13.70;99.90;;;;;;5033752;28;20519;-63
2022/07/02 00:47:12;;;;;;;7.18;3.13;;;13.80;99.90;;;;;;5028500;28;20511;-64
2022/07/02 00:49:38;;;;;;;9.23;3.58;;;13.80;99.90;;;;;;5018999;28;20033;-63
2022/07/02 00:52:06;;;;;;;5.38;3.35;;;13.70;99.90;;;;;;5037158;28;20116;-63
2022/07/02 00:54:31;;;;;;;5.03;2.70;;;13.70;99.90;;;;;;5037904;28;20033;-63
2022/07/02 00:56:57;;;;;;;7.90;3.25;;;13.60;99.90;;;;;;5022375;28;20122;-63
2022/07/02 00:59:24;;;;;;;8.02;3.30;;;13.70;99.90;;;;;;5015725;28;20041;-63
2022/07/02 01:01:51;;;;;;;9.15;3.40;;;13.40;99.90;;;;;;5009593;28;20503;-64
2022/07/02 01:04:18;;;;;;;5.47;2.70;;;13.50;99.90;;;;;;5037647;28;20053;-64
2022/07/02 01:06:45;;;;;;;3.78;2.80;;;13.50;99.90;;;;;;5055422;28;20047;-63
2022/07/02 01:11:59;;;;;;;3.95;2.65;;;13.60;99.90;;;;;;5015410;28;20050;-63
2022/07/02 01:14:25;;;;;;;8.35;3.15;;;13.40;99.90;;;;;;4998098;28;20033;-63
2022/07/02 01:16:51;;;;;;;8.73;3.25;;;13.40;99.90;;;;;;5040901;28;20039;-64
2022/07/02 01:19:18;;;;;;;6.82;3.42;;;13.50;99.90;;;;;;5054897;28;20545;-63
2022/07/02 01:22:16;;;;;;;7.47;2.83;;;13.40;99.90;;;;;;5040614;28;20037;-63
2022/07/02 01:24:43;;;;;;;4.82;2.63;;;13.30;99.90;;;;;;5023158;28;20047;-63
2022/07/02 01:27:09;;;;;;;7.50;3.17;;;13.40;99.90;;;;;;5054869;28;20502;-63
2022/07/02 01:29:35;;;;;;;5.80;3.13;;;13.30;99.90;;;;;;5006713;28;20041;-63
2022/07/02 01:32:01;;;;;;;8.70;2.90;;;;;;;;;;5004621;28;20040;-63
2022/07/02 01:34:27;;;;;;;6.38;2.83;;;13.30;99.90;;;;;;5048062;28;20116;-63
2022/07/02 01:36:53;;;;;;;5.97;2.85;;;;;;;;;;5026624;28;20537;-63
2022/07/02 01:39:25;;;;;;;6.22;3.35;;;13.40;99.90;;;;;;5025417;28;20095;-63
2022/07/02 01:41:51;;;;;;;9.43;3.22;;;13.40;99.90;;;;;;5026683;28;20041;-63
2022/07/02 01:44:16;;;;;;;12.23;3.58;;;13.30;99.90;;;;;;4997379;28;20104;-63
2022/07/02 01:46:44;;;;;;;10.38;3.53;;;13.40;99.90;;;;;;5016475;28;20049;-63
2022/07/02 01:49:10;;;;;;;5.63;3.25;;;13.40;99.90;;;;;;5033658;28;20045;-63
2022/07/02 01:51:36;;;;;;;7.30;4.00;;;13.30;99.90;;;;;;5035919;28;20039;-63
2022/07/02 01:54:02;;;;;;;7.63;3.42;;;13.40;99.90;;;;;;5015160;28;20041;-62
2022/07/02 01:56:32;;;;;;;4.75;3.55;;;13.30;99.90;;;;;;5003843;28;20084;-63
2022/07/02 01:58:58;;;;;;;7.03;3.38;;;;;;;;;;5029883;28;20044;-62
2022/07/02 02:01:23;;;;;;;4.43;3.38;;;13.10;99.90;;;;;;5008167;28;20083;-62
2022/07/02 02:03:49;;;;;;;6.18;4.38;;;13.30;99.90;;;;;;5031088;28;20062;-63
2022/07/02 02:06:15;;;;;;;6.97;3.80;;;13.20;99.90;;;;;;5010815;28;20049;-63
2022/07/02 02:08:40;;;;;;;8.10;4.07;;;13.40;99.90;;;;;;5014710;28;20042;-62
2022/07/02 02:11:06;;;;;;;7.22;3.58;;;;;;;;;;5016435;28;20129;-63
2022/07/02 02:13:32;;;;;;;5.15;3.60;;;;;;;;;;5022193;28;20026;-63
2022/07/02 02:15:58;;;;;;;4.63;3.22;;;;;;;;;;5014361;28;20049;-62
2022/07/02 02:18:24;;;;;;;6.47;3.50;;;13.20;99.90;;;;;;4996343;28;20184;-63
2022/07/02 02:20:50;;;;;;;6.07;3.80;;;;;;;;;;4996654;28;20404;-63
2022/07/02 02:23:16;;;;;;;5.90;3.50;;;;;;;;;;5033336;28;20131;-63
2022/07/02 02:25:41;;;;;;;8.75;3.90;;;;;;;;;;5036254;28;20049;-62
2022/07/02 02:28:07;;;;;;;9.88;3.97;;;13.10;99.90;;;;;;5024509;28;20488;-63
2022/07/02 02:30:33;;;;;;;6.95;3.65;;;13.20;99.90;;;;;;5022952;28;20045;-62
2022/07/02 02:32:58;;;;;;;7.72;3.95;;;13.10;99.90;;;;;;5028670;28;20057;-63
2022/07/02 02:35:25;;;;;;;8.40;3.95;;;13.20;99.90;;;;;;5023531;28;20124;-63
2022/07/02 02:37:50;;;;;;;5.88;4.10;;;13.20;99.90;;;;;;4998292;28;20125;-63
2022/07/02 02:40:16;;;;;;;6.65;4.07;;;13.10;99.90;;;;;;5016786;28;20080;-64
2022/07/02 02:42:42;;;;;;;7.88;4.80;;;;;;;;;;5025103;28;20045;-63
2022/07/02 02:45:08;;;;;;;9.20;4.53;;;13.00;99.90;;;;;;4996946;28;20373;-63
2022/07/02 02:47:33;;;;;;;8.45;4.03;;;13.00;99.90;;;;;;5022518;28;20043;-63
2022/07/02 02:49:59;;;;;;;7.55;4.57;;;;;;;;;;5035521;28;20502;-63
2022/07/02 02:52:25;;;;;;;9.38;4.97;;;;;;;;;;5025683;28;20107;-63
2022/07/02 02:54:51;;;;;;;7.28;4.53;;;;;;;;;;5035660;28;20044;-63
2022/07/02 02:57:17;;;;;;;13.52;4.57;;;;;;;;;;5017780;28;20080;-63
2022/07/02 02:59:43;;;;;;;9.65;4.50;;;12.90;99.90;;;;;;5037757;28;20045;-63
2022/07/02 03:02:08;;;;;;;10.05;4.85;;;13.00;99.90;;;;;;5001630;28;20053;-63
2022/07/02 03:04:34;;;;;;;9.10;4.15;;;12.90;99.90;;;;;;4974835;28;20070;-63
2022/07/02 03:07:00;;;;;;;10.35;4.97;;;12.80;99.90;;;;;;4984507;28;20038;-63
2022/07/02 03:09:25;;;;;;;12.25;4.80;;;12.90;99.90;;;;;;4988842;28;20146;-63
2022/07/02 03:11:51;;;;;;;9.15;4.88;;;12.90;99.90;;;;;;4972864;28;20412;-63
2022/07/02 03:14:17;;;;;;;8.80;4.60;;;;;;;;;;4974576;28;20034;-63
2022/07/02 03:16:42;;;;;;;7.55;4.60;;;12.80;99.90;;;;;;4992325;28;20035;-63
2022/07/02 03:19:08;;;;;;;8.10;4.40;;;12.80;99.90;;;;;;4979187;28;20049;-63
2022/07/02 03:21:33;;;;;;;7.85;5.18;;;12.70;99.90;;;;;;4987934;28;20043;-63
2022/07/02 03:23:59;;;;;;;9.05;4.85;;;;;;;;;;4985519;28;20074;-63
2022/07/02 03:26:25;;;;;;;8.98;5.28;;;12.80;99.90;;;;;;4993537;28;20113;-63
2022/07/02 03:28:51;;;;;;;8.82;5.32;;;12.60;99.90;;;;;;4983078;28;20047;-64
2022/07/02 03:31:16;;;;;;;8.65;4.78;;;;;;;;;;4973675;28;20043;-63
2022/07/02 03:33:42;;;;;;;9.00;4.65;;;;;;;;;;4980398;28;20038;-63
2022/07/02 03:36:09;;;;;;;7.25;5.60;;;12.80;99.90;;;;;;4993282;28;20444;-63
2022/07/02 03:38:35;;;;;;;11.25;5.07;;;;;;;;;;5339843;23;20108;-63
2022/07/02 03:41:01;;;;;;;10.38;5.53;;;;;;;;;;5023265;28;20507;-64
2022/07/02 03:43:27;;;;;;;8.75;5.55;;;12.60;99.90;;;;;;5015352;28;20129;-63
2022/07/02 03:45:52;;;;;;;8.43;5.68;;;12.70;99.90;;;;;;5013020;28;20124;-64
2022/07/02 03:48:46;;;;;;;8.95;5.55;;;12.70;99.90;;;;;;5013969;28;20467;-64
2022/07/02 03:51:12;;;;;;;10.38;6.10;;;12.80;99.90;;;;;;5047943;28;20045;-63
2022/07/02 03:53:37;;;;;;;7.70;5.65;;;;;;;;;;5004619;28;20071;-63
2022/07/02 03:56:03;;;;;;;9.32;5.90;;;12.90;99.90;;;;;;5026721;28;20180;-63
2022/07/02 03:58:31;;;;;;;11.23;6.50;;;;;;;;;;4999616;28;20073;-63
2022/07/02 04:00:57;;;;;;;7.03;6.20;;;12.70;99.90;;;;;;4993066;28;20077;-63
2022/07/02 04:03:22;;;;;;;10.27;6.97;;;12.80;99.90;;;;;;4993029;28;20061;-63
2022/07/02 04:05:48;;;;;;;8.55;6.28;;;;;;;;;;4991912;28;20038;-63
2022/07/02 04:08:14;;;;;;;11.05;6.57;;;;;;;;;;4999364;28;20049;-63
2022/07/02 04:10:40;;;;;;;9.98;6.20;;;12.80;99.90;;;;;;4997400;28;20038;-63
2022/07/02 04:13:08;;;;;;;9.57;6.90;;;;;;;;;;4992678;28;20061;-63
2022/07/02 04:15:34;;;;;;;12.38;7.80;;;12.90;99.90;;;;;;5003982;28;20049;-63
2022/07/02 04:17:59;;;;;;;8.82;7.03;;;12.90;99.90;;;;;;5006864;28;20042;-63
2022/07/02 04:20:26;;;;;;;14.13;7.40;;;;;;;;;;4991642;28;20389;-63
2022/07/02 04:22:52;;;;;;;9.75;8.15;;;13.10;99.90;;;;;;4992583;28;20042;-63
2022/07/02 04:25:17;;;;;;;12.55;7.70;;;13.10;99.90;;;;;;4994277;28;20037;-63
2022/07/02 04:27:43;;;;;;;11.32;8.73;;;13.00;99.90;;;;;;5009469;28;20034;-63
2022/07/02 04:30:09;;;;;;;10.15;7.88;;;;;;;;;;5007318;28;20480;-63
2022/07/02 04:32:36;;;;;;;11.43;8.10;;;13.00;99.90;;;;;;4993453;28;20077;-63
2022/07/02 04:35:01;;;;;;;13.57;8.38;;;13.30;99.90;;;;;;4994273;28;20030;-63
2022/07/02 04:37:27;;;;;;;11.98;8.07;;;;;;;;;;5011978;28;20120;-63
2022/07/02 04:39:53;;;;;;;14.93;9.10;;;13.20;99.90;;;;;;5010530;28;20050;-63
2022/07/02 04:42:18;;;;;;;12.23;8.27;;;13.30;99.90;;;;;;5007715;28;20093;-63
2022/07/02 04:44:44;;;;;;;12.00;7.90;;;;;;;;;;4999586;28;20073;-63
2022/07/02 04:47:10;;;;;;;11.85;8.98;;;;;;;;;;5005375;28;20469;-63
2022/07/02 04:49:36;;;;;;;11.57;7.78;;;13.40;99.90;;;;;;5006764;28;20037;-63
2022/07/02 04:52:02;;;;;;;11.15;7.25;;;;;;;;;;5008273;28;20046;-63
2022/07/02 04:54:28;;;;;;;10.32;7.05;;;;;;;;;;5008004;28;20068;-64
2022/07/02 04:56:54;;;;;;;13.98;7.35;;;;;;;;;;5006995;28;20480;-63
2022/07/02 04:59:20;;;;;;;11.73;5.95;;;13.70;99.90;;;;;;4998632;28;20045;-63
2022/07/02 05:01:46;;;;;;;11.27;5.70;;;;;;;;;;5028118;28;20148;-63
2022/07/02 05:04:11;;;;;;;13.50;6.18;;;14.40;99.90;;;;;;5000322;28;20046;-63
2022/07/02 05:06:37;;;;;;;12.40;5.97;;;;;;;;;;5028191;28;20077;-63
2022/07/02 05:09:03;;;;;;;12.23;5.47;;;;;;;;;;5028646;28;20089;-62
2022/07/02 05:11:29;;;;;;;9.63;4.65;;;15.40;99.90;;;;;;5031531;28;20079;-63
2022/07/02 05:13:55;;;;;;;8.80;4.80;;;15.70;99.90;;;;;;5006267;28;20401;-63
2022/07/02 05:16:21;;;;;;;7.47;4.85;;;15.90;99.90;;;;;;5000599;28;20092;-62
2022/07/02 05:18:47;;;;;;;7.75;4.97;;;16.20;99.90;;;;;;5010761;28;20084;-63
2022/07/02 05:21:12;;;;;;;9.40;4.20;;;16.10;99.90;;;;;;4996202;28;20042;-63
2022/07/02 05:23:38;;;;;;;8.60;5.00;;;16.20;99.90;;;;;;5014507;28;20035;-63
2022/07/02 05:26:04;;;;;;;8.15;4.68;;;16.40;99.90;;;;;;5019397;28;20060;-63
2022/07/02 05:28:30;;;;;;;5.25;3.90;;;15.90;99.90;;;;;;5005053;28;20046;-63
2022/07/02 05:30:55;;;;;;;8.00;4.65;;;15.80;99.90;;;;;;4992158;28;20034;-63
2022/07/02 05:33:21;;;;;;;8.77;4.78;;;15.80;99.90;;;;;;4989016;28;20122;-62
2022/07/02 05:35:47;;;;;;;8.60;4.30;;;15.80;99.90;;;;;;5005189;28;20037;-62
2022/07/02 05:38:12;;;;;;;8.35;4.10;;;15.80;99.90;;;;;;5022377;28;20135;-63
2022/07/02 05:40:38;;;;;;;9.70;4.63;;;15.60;99.90;;;;;;5007399;28;20058;-63
2022/07/02 05:43:03;;;;;;;6.18;4.00;;;15.80;99.90;;;;;;5013696;28;20095;-63
2022/07/02 05:45:30;;;;;;;9.68;4.22;;;16.10;99.90;;;;;;4997730;28;20041;-63
2022/07/02 05:47:55;;;;;;;9.43;4.50;;;16.00;99.90;;;;;;5010638;28;20054;-63
2022/07/02 05:50:21;;;;;;;7.15;4.22;;;16.20;99.90;;;;;;5010872;28;20395;-63
2022/07/02 05:52:47;;;;;;;10.88;3.97;;;16.40;99.90;;;;;;5010730;28;20046;-63
2022/07/02 05:55:12;;;;;;;6.35;3.55;;;16.70;99.90;;;;;;5010511;28;20452;-63
2022/07/02 05:57:38;;;;;;;6.13;3.13;;;16.80;99.90;;;;;;5015023;28;20376;-63
2022/07/02 06:00:05;;;;;;;8.10;3.42;;;16.80;99.90;;;;;;5030642;28;20124;-64
2022/07/02 06:02:31;;;;;;;10.65;3.50;;;16.80;99.90;;;;;;5012361;28;20096;-63
2022/07/02 06:04:57;;;;;;;4.78;2.72;;;17.20;99.90;;;;;;5007271;28;20049;-63
2022/07/02 06:07:42;;;;;;;8.68;3.25;;;17.30;99.90;;;;;;4987192;28;20053;-63
2022/07/02 06:10:08;;;;;;;4.53;3.15;;;17.50;99.90;;;;;;4993407;28;20082;-64
2022/07/02 06:12:34;;;;;;;5.88;3.20;;;17.80;99.90;;;;;;5007383;28;20076;-63
2022/07/02 06:14:59;;;;;;;7.10;3.97;;;17.80;99.90;;;;;;5007583;28;20068;-63
2022/07/02 06:17:25;;;;;;;7.70;3.67;;;17.60;99.90;;;;;;5007202;28;20045;-63
2022/07/02 06:19:51;;;;;;;8.40;3.20;;;17.70;99.90;;;;;;5006729;28;20491;-63
2022/07/02 06:22:17;;;;;;;7.20;2.85;;;17.80;99.90;;;;;;5005559;28;20123;-63
2022/07/02 06:24:45;;;;;;;6.05;2.92;;;17.80;99.90;;;;;;5003200;28;20065;-63
2022/07/02 06:27:11;;;;;;;4.97;2.65;;;18.00;99.90;;;;;;5005501;28;20070;-64
2022/07/02 06:29:36;;;;;;;5.13;3.03;;;18.00;99.90;;;;;;4985226;28;20046;-63
2022/07/02 06:32:03;;;;;;;5.82;2.85;;;18.10;99.90;;;;;;5002672;28;20033;-63
2022/07/02 06:34:28;;;;;;;7.72;2.70;;;18.20;99.90;;;;;;5001329;28;20100;-63
2022/07/02 06:36:54;;;;;;;5.32;2.35;;;18.50;99.90;;;;;;5007410;28;20037;-63
2022/07/02 06:39:19;;;;;;;7.22;2.95;;;18.70;99.90;;;;;;5012906;28;20061;-63
2022/07/02 06:44:29;;;;;;;8.48;2.90;;;18.70;99.90;;;;;;5010652;28;20148;-63
2022/07/02 06:46:55;;;;;;;9.32;2.33;;;18.40;99.90;;;;;;5011484;28;20523;-62
2022/07/02 06:49:20;;;;;;;5.72;2.10;;;18.40;99.90;;;;;;5008752;28;20042;-63
2022/07/02 06:51:46;;;;;;;7.32;2.67;;;18.10;99.90;;;;;;5011027;28;20045;-63
2022/07/02 06:54:11;;;;;;;5.45;2.15;;;18.00;99.90;;;;;;5003801;28;20038;-63
2022/07/02 06:56:37;;;;;;;8.48;2.42;;;18.10;99.90;;;;;;5006852;28;20045;-62
2022/07/02 06:59:04;;;;;;;5.20;2.20;;;17.70;99.90;;;;;;5007555;28;20124;-62
2022/07/02 07:01:30;;;;;;;6.30;2.65;;;17.90;99.90;;;;;;4998850;28;20140;-62
2022/07/02 07:03:55;;;;;;;3.88;1.98;;;17.90;99.90;;;;;;4996951;28;20120;-62
2022/07/02 07:06:22;;;;;;;8.35;2.25;;;18.00;99.90;;;;;;5006395;28;20096;-62
2022/07/02 07:08:52;;;;;;;4.53;2.22;;;17.70;99.90;;;;;;5006422;28;20038;-62
2022/07/02 07:11:19;;;;;;;7.13;2.65;;;17.70;99.90;;;;;;5005011;28;20052;-62
2022/07/02 07:13:45;;;;;;;8.18;2.47;;;15.60;99.90;;;;;;5006500;28;20072;-62
2022/07/02 07:16:10;;;;;;;9.18;3.20;;;17.70;99.90;;;;;;5007259;28;20443;-62
2022/07/02 07:18:36;;;;;;;7.38;2.17;;;17.50;99.90;;;;;;4999229;28;21479;-62
2022/07/02 07:21:01;;;;;;;10.23;2.72;;;17.80;99.90;;;;;;5004044;28;20049;-63
2022/07/02 07:23:27;;;;;;;6.03;3.22;;;17.70;99.90;;;;;;5003382;28;20605;-62
2022/07/02 07:25:52;;;;;;;5.53;2.50;;;17.80;99.90;;;;;;5002222;28;20046;-62
2022/07/02 07:28:18;;;;;;;5.00;1.90;;;17.80;99.90;;;;;;5001518;28;20045;-62
2022/07/02 07:30:43;;;;;;;4.68;2.33;;;17.80;99.90;;;;;;5008969;28;20048;-62
2022/07/02 07:33:09;;;;;;;5.30;2.08;;;17.80;99.90;;;;;;5007654;28;20507;-62
2022/07/02 07:35:35;;;;;;;3.90;1.80;;;17.90;99.90;;;;;;5007541;28;20033;-62
2022/07/02 07:38:02;;;;;;;3.72;1.77;;;17.90;99.90;;;;;;5006085;28;20073;-63
2022/07/02 07:40:28;;;;;;;5.80;2.35;;;17.80;99.90;;;;;;5008155;28;20057;-61
2022/07/02 07:42:54;;;;;;;4.68;2.08;;;18.00;99.90;;;;;;4990548;28;20045;-61
2022/07/02 07:45:19;;;;;;;5.28;1.77;;;17.80;99.90;;;;;;5007603;28;20044;-61
2022/07/02 07:47:45;;;;;;;6.35;1.55;;;18.10;99.90;;;;;;5008009;28;20046;-61
2022/07/02 07:50:10;;;;;;;4.38;1.77;;;18.00;99.90;;;;;;5007703;28;20060;-61
2022/07/02 07:52:36;;;;;;;3.97;1.38;;;17.90;99.90;;;;;;5004389;28;20131;-61
2022/07/02 07:55:02;;;;;;;6.57;2.13;;;18.00;99.90;;;;;;5003757;28;20049;-61
2022/07/02 07:57:27;;;;;;;8.68;1.73;;;18.00;99.90;;;;;;4999947;28;20324;-61
2022/07/02 07:59:53;;;;;;;3.15;1.58;;;18.10;99.90;;;;;;4984984;28;20054;-62
2022/07/02 08:02:19;;;;;;;6.65;1.98;;;17.90;99.90;;;;;;4994279;28;20050;-62
2022/07/02 08:04:45;;;;;;;5.45;1.40;;;17.80;99.90;;;;;;5005326;28;20117;-62
2022/07/02 08:07:11;;;;;;;3.55;1.40;;;18.00;99.90;;;;;;5002844;28;20099;-62
2022/07/02 08:09:36;;;;;;;5.15;1.60;;;18.20;99.90;;;;;;5006060;28;20489;-62
2022/07/02 08:12:02;;;;;;;4.20;1.55;;;18.20;99.90;;;;;;5008521;28;20080;-62
2022/07/02 08:14:28;;;;;;;4.55;1.35;;;18.30;99.90;;;;;;5006273;28;20544;-62
2022/07/02 08:16:53;;;;;;;3.67;1.38;;;18.40;99.90;;;;;;5006216;28;20513;-62
2022/07/02 08:19:19;;;;;;;3.70;1.38;;;18.20;99.90;;;;;;5003802;28;20408;-61
2022/07/02 08:21:44;;;;;;;4.53;1.25;;;18.20;99.90;;;;;;5001432;28;20038;-61
2022/07/02 08:24:10;;;;;;;5.10;2.03;;;18.40;99.90;;;;;;5000553;28;20128;-62
2022/07/02 08:26:35;;;;;;;3.60;1.27;;;18.40;99.90;;;;;;5001832;28;20135;-62
2022/07/02 08:29:01;;;;;;;4.35;1.52;;;18.50;99.90;;;;;;5002148;28;20042;-62
2022/07/02 08:31:26;;;;;;;3.42;1.35;;;18.50;99.90;;;;;;4993516;28;20041;-62
2022/07/02 08:33:52;;;;;;;1.73;0.90;;;18.40;99.90;;;;;;5004621;28;20060;-61
2022/07/02 08:36:18;;;;;;;2.70;1.00;;;18.40;99.90;;;;;;5000562;28;20327;-64
2022/07/02 08:38:44;;;;;;;3.92;1.10;;;19.80;99.90;;;;;;4985983;28;20053;-63
2022/07/02 08:41:12;;;;;;;3.10;0.88;;;19.10;99.90;;;;;;4996483;28;20054;-65
2022/07/02 08:43:40;;;;;;;2.05;0.60;;;18.90;99.90;;;;;;4998708;28;20391;-62
2022/07/02 08:46:06;;;;;;;2.90;0.90;;;19.00;99.90;;;;;;4999865;28;20052;-63
2022/07/02 08:48:33;;;;;;;2.10;0.80;;;19.10;99.90;;;;;;4999010;28;20046;-61
2022/07/02 08:51:00;;;;;;;5.60;0.88;;;18.90;99.90;;;;;;4997012;28;20048;-63
2022/07/02 08:53:26;;;;;;;3.08;0.90;;;19.10;99.90;;;;;;4995630;28;20081;-63
2022/07/02 08:55:54;;;;;;;2.70;0.80;;;19.10;99.90;;;;;;4997826;28;20153;-61
2022/07/02 08:58:21;;;;;;;1.95;0.80;;;19.10;99.90;;;;;;4991782;28;20719;-62
2022/07/02 09:00:48;;;;;;;1.95;0.60;;;18.80;99.90;;;;;;4992667;28;20038;-62
2022/07/02 09:03:17;;;;;;;2.08;0.40;;;19.20;99.90;;;;;;4991949;28;20467;-62
2022/07/02 09:05:44;;;;;;;1.10;0.50;;;19.20;99.90;;;;;;4996728;28;20046;-61
2022/07/02 09:08:11;;;;;;;2.15;0.60;;;19.30;99.90;;;;;;4996441;28;20044;-61
2022/07/02 09:10:38;;;;;;;1.38;0.50;;;19.10;99.90;;;;;;4998845;28;20048;-61
2022/07/02 09:13:06;;;;;;;1.67;0.50;;;19.30;99.90;;;;;;5001980;28;20404;-62
2022/07/02 09:15:34;;;;;;;2.92;0.52;;;19.30;99.90;;;;;;5002650;28;20546;-63
2022/07/02 09:17:59;;;;;;;0.40;0.20;;;19.40;99.90;;;;;;5004314;28;20518;-62
2022/07/02 09:20:25;;;;;;;1.02;0.40;;;19.40;99.90;;;;;;5005087;28;20046;-63
2022/07/02 09:22:52;;;;;;;0.80;0.30;;;19.50;99.90;;;;;;5004732;28;20072;-61
2022/07/02 09:25:24;;;;;;;1.50;0.40;;;19.70;99.90;;;;;;5017377;28;20042;-64
2022/07/02 09:27:58;;;;;;;1.73;0.40;;;19.80;99.90;;;;;;4999562;28;20431;-62
2022/07/02 09:30:27;;;;;;;1.33;0.30;;;19.60;99.90;;;;;;5006035;28;20068;-62
2022/07/02 09:33:28;;;;;;;1.58;0.40;;;19.90;99.90;;;;;;5006184;28;20049;-64
2022/07/02 09:35:38;;;;;;;1.00;0.30;;;20.00;99.90;;;;;;5003760;28;20056;-63
2022/07/02 09:38:09;;;;;;;1.95;0.35;;;20.10;99.90;;;;;;5002434;28;20042;-62
2022/07/02 09:40:35;;;;;;;0.65;0.30;;;20.10;99.90;;;;;;5004262;28;20053;-63
2022/07/02 09:43:00;;;;;;;3.63;0.50;;;20.00;99.90;;;;;;5005467;28;20384;-62
2022/07/02 09:45:26;;;;;;;1.33;0.38;;;20.10;99.90;;;;;;5002336;28;20046;-63
2022/07/02 09:47:53;;;;;;;2.42;0.40;;;19.90;99.90;;;;;;5006298;28;20257;-62
2022/07/02 09:50:21;;;;;;;2.75;0.43;;;20.00;99.90;;;;;;5008706;28;20038;-62
2022/07/02 09:52:51;;;;;;;0.50;0.30;;;20.50;99.90;;;;;;5010109;28;20046;-62
2022/07/02 09:55:24;;;;;;;1.23;0.52;;;20.20;99.90;;;;;;5009704;28;20045;-63
2022/07/02 09:57:54;;;;;;;1.95;0.40;;;20.40;99.90;;;;;;5000078;28;20045;-62
2022/07/02 10:00:22;;;;;;;2.40;0.40;;;20.50;99.90;;;;;;5007034;28;20496;-62
2022/07/02 10:02:55;;;;;;;1.85;0.50;;;20.50;99.90;;;;;;5002861;28;20510;-62
2022/07/02 10:05:31;;;;;;;1.85;0.40;;;20.70;99.90;;;;;;5004211;28;20056;-62
2022/07/02 10:07:58;;;;;;;2.67;0.55;;;20.70;99.90;;;;;;5011874;28;20038;-62
2022/07/02 10:10:41;;;;;;;1.67;0.50;;;20.50;99.90;;;;;;5014051;28;20080;-62
2022/07/02 10:13:09;;;;;;;0.75;0.40;;;20.50;99.90;;;;;;5008727;28;20100;-62
2022/07/02 10:15:39;;;;;;;2.72;0.98;;;20.70;99.90;;;;;;5012251;28;20435;-62
2022/07/02 10:18:05;;;;;;;1.77;0.30;;;20.70;99.90;;;;;;5014513;28;20060;-62
2022/07/02 10:20:33;;;;;;;1.05;0.30;;;20.80;99.90;;;;;;5014603;28;20492;-62
2022/07/02 10:23:02;;;;;;;1.77;0.50;;;21.00;99.90;;;;;;5012568;28;20050;-62
2022/07/02 10:25:28;;;;;;;2.65;0.55;;;21.10;99.90;;;;;;5014427;28;20044;-62
2022/07/02 10:27:55;;;;;;;1.38;0.30;;;21.10;99.90;;;;;;5014405;28;20042;-62
2022/07/02 10:30:35;;;;;;;1.02;0.40;;;20.90;99.90;;;;;;5013063;28;20041;-62
2022/07/02 10:33:15;;;;;;;2.28;0.50;;;21.00;99.90;;;;;;5014608;28;20034;-62
2022/07/02 10:35:43;;;;;;;1.33;0.30;;;21.10;99.90;;;;;;5014233;28;20504;-62
2022/07/02 10:38:08;;;;;;;2.30;0.50;;;21.20;99.90;;;;;;5012357;28;20514;-62
2022/07/02 10:40:48;;;;;;;3.33;0.47;;;21.20;99.90;;;;;;5014260;28;20125;-62
2022/07/02 10:43:18;;;;;;;1.10;0.40;;;21.40;99.90;;;;;;5014160;28;20037;-62
2022/07/02 10:45:44;;;;;;;0.85;0.30;;;21.20;99.90;;;;;;5014178;28;20458;-62
2022/07/02 10:48:11;;;;;;;0.85;0.40;;;21.40;99.90;;;;;;5012537;28;20116;-62
2022/07/02 10:50:44;;;;;;;1.77;0.30;;;21.40;99.90;;;;;;5014170;28;20037;-62
2022/07/02 10:53:18;;;;;;;1.75;0.40;;;21.30;99.90;;;;;;5014060;28;20034;-62
2022/07/02 10:55:51;;;;;;;2.20;0.40;;;21.30;99.90;;;;;;5003283;28;20038;-62
2022/07/02 10:58:31;;;;;;;1.40;0.30;;;21.50;99.90;;;;;;5004145;28;20113;-62
2022/07/02 11:01:07;;;;;;;4.68;0.50;;;21.30;99.90;;;;;;5003532;28;20046;-62
2022/07/02 11:03:34;;;;;;;1.30;0.30;;;21.20;99.90;;;;;;4994283;28;20038;-62
2022/07/02 11:06:03;;;;;;;1.30;0.30;;;21.40;99.90;;;;;;4993185;28;20097;-62
2022/07/02 11:08:46;;;;;;;3.78;0.50;;;21.30;99.90;;;;;;5003059;28;20543;-62
2022/07/02 11:11:14;;;;;;;0.85;0.65;;;21.40;99.90;;;;;;4994315;28;20065;-62
2022/07/02 11:14:04;;;;;;;1.15;0.38;;;21.50;99.90;;;;;;4994119;28;20038;-61
2022/07/02 11:16:34;;;;;;;1.55;0.30;;;21.60;99.90;;;;;;4994077;28;20034;-62
2022/07/02 11:19:00;;;;;;;2.75;0.40;;;21.80;99.90;;;;;;4992754;28;20493;-62
2022/07/02 11:21:27;;;;;;;1.88;0.40;;;22.00;99.90;;;;;;4992555;28;20049;-62
2022/07/02 11:23:53;;;;;;;3.03;0.30;;;21.90;99.90;;;;;;4992674;28;20104;-62
2022/07/02 11:26:26;;;;;;;1.52;0.30;;;21.90;99.90;;;;;;4993794;28;21559;-62
2022/07/02 11:28:53;;;;;;;1.45;0.40;;;21.80;99.90;;;;;;4993858;28;20034;-62
2022/07/02 11:31:21;;;;;;;0.80;0.20;;;21.70;99.90;;;;;;4992406;28;20113;-62
2022/07/02 11:33:54;;;;;;;1.40;0.80;;;21.90;99.90;;;;;;4993836;28;20054;-62
2022/07/02 11:36:21;;;;;;;1.05;0.30;;;21.80;99.90;;;;;;4993484;28;20041;-62
2022/07/02 11:38:49;;;;;;;0.82;0.30;;;21.90;99.90;;;;;;4993499;28;20129;-62
2022/07/02 11:41:20;;;;;;;2.17;0.47;;;22.20;99.90;;;;;;4992320;28;20089;-62
2022/07/02 11:43:47;;;;;;;1.05;0.30;;;22.10;99.90;;;;;;5001977;28;20491;-62
2022/07/02 11:46:14;;;;;;;2.70;0.30;;;22.00;99.90;;;;;;5008344;28;20049;-62
2022/07/02 11:48:40;;;;;;;2.40;0.30;;;22.20;99.90;;;;;;4993452;28;20060;-62
2022/07/02 11:51:06;;;;;;;1.48;0.20;;;22.40;99.90;;;;;;4991827;28;20485;-62
2022/07/02 11:53:31;;;;;;;1.55;0.47;;;22.30;99.90;;;;;;4992046;28;20050;-62
2022/07/02 11:56:07;;;;;;;3.53;0.75;;;22.20;99.90;;;;;;4996696;28;20120;-62
2022/07/02 11:58:38;;;;;;;1.65;0.25;;;22.60;99.90;;;;;;5001212;28;20065;-62
2022/07/02 12:01:04;;;;;;;3.22;0.35;;;22.40;99.90;;;;;;5002473;28;20041;-62
2022/07/02 12:03:29;;;;;;;2.55;0.40;;;22.40;99.90;;;;;;5015215;28;20041;-62
2022/07/02 12:05:55;;;;;;;0.68;0.20;;;22.30;99.90;;;;;;5022548;28;20479;-62
2022/07/02 12:08:21;;;;;;;2.17;0.28;;;22.40;99.90;;;;;;4991857;28;20049;-62
2022/07/02 12:10:46;;;;;;;1.00;0.30;;;22.10;99.90;;;;;;5007745;28;20432;-62
2022/07/02 12:13:12;;;;;;;3.85;0.68;;;22.10;99.90;;;;;;5012825;28;20451;-62
2022/07/02 12:15:46;;;;;;;1.95;0.30;;;21.90;99.90;;;;;;5027752;28;20038;-62
2022/07/02 12:18:19;;;;;;;1.85;0.30;;;21.80;99.90;;;;;;4992873;28;20524;-62
2022/07/02 12:20:45;;;;;;;2.47;0.40;;;21.80;99.90;;;;;;4993054;28;20489;-62
2022/07/02 12:23:11;;;;;;;1.98;0.40;;;21.70;99.90;;;;;;4991896;28;20519;-62
2022/07/02 12:25:49;;;;;;;7.28;1.25;;;21.60;99.90;;;;;;4993180;28;20050;-62
2022/07/02 12:31:04;;;;;;;1.42;0.30;;;21.90;99.90;;;;;;4991494;28;20050;-62
2022/07/02 12:33:35;;;;;;;2.67;0.20;;;22.20;99.90;;;;;;4996379;28;20038;-62
2022/07/02 12:36:04;;;;;;;2.20;0.30;;;22.20;99.90;;;;;;5000100;28;20070;-62
2022/07/02 12:38:40;;;;;;;3.78;0.40;;;22.00;99.90;;;;;;4992593;28;20457;-62
2022/07/02 12:41:06;;;;;;;2.97;0.30;;;22.00;99.90;;;;;;4991520;28;20054;-62
2022/07/02 12:43:31;;;;;;;0.98;0.20;;;22.40;99.90;;;;;;4991466;28;20045;-62
2022/07/02 12:46:05;;;;;;;2.78;0.77;;;22.60;99.90;;;;;;4998892;28;20407;-62
2022/07/02 12:48:31;;;;;;;1.23;0.23;;;22.50;99.90;;;;;;4997847;28;20073;-62
2022/07/02 12:50:59;;;;;;;2.28;0.32;;;22.20;99.90;;;;;;4996544;28;20489;-62
2022/07/02 12:53:24;;;;;;;1.67;0.30;;;21.90;99.90;;;;;;4995794;28;20481;-62
2022/07/02 12:56:02;;;;;;;3.60;0.30;;;22.10;99.90;;;;;;5000177;28;20061;-62
2022/07/02 12:58:29;;;;;;;2.47;0.63;;;21.50;99.90;;;;;;5005174;28;20118;-62
2022/07/02 13:00:55;;;;;;;1.75;0.30;;;21.80;99.90;;;;;;4995315;28;20045;-62
2022/07/02 13:03:22;;;;;;;3.75;0.40;;;21.70;99.90;;;;;;4995243;28;20043;-62
2022/07/02 13:05:53;;;;;;;6.05;0.40;;;21.80;99.90;;;;;;4995244;28;20100;-62